Time;durP1;ratioP1;P1;durP2;ratioP2;P2;SDS_P1;SDS_P2;PMS_P1;PMS_P2;Temp;Humidity;BMP_temperature;BMP_pressure;BME280_temperature;BME280_humidity;BME280_pressure;Samples;Min_cycle;Max_cycle;Signal;HPM_P1;HPM_P2
2022/03/04 00:01:55;;;;;;;24.07;18.10;;;2.80;71.10;;;;;;4913599;29;20534;-90
2022/03/04 00:04:23;;;;;;;24.00;17.30;;;2.90;71.50;;;;;;4914029;29;20456;-88
2022/03/04 00:06:50;;;;;;;22.48;18.20;;;2.90;72.50;;;;;;4931728;29;20445;-89
2022/03/04 00:09:19;;;;;;;21.80;17.30;;;2.90;73.00;;;;;;4932860;29;20212;-88
2022/03/04 00:11:46;;;;;;;25.98;19.30;;;2.80;73.20;;;;;;4924389;29;20569;-89
2022/03/04 00:14:13;;;;;;;22.83;16.77;;;2.70;73.60;;;;;;4923512;29;20708;-88
2022/03/04 00:16:40;;;;;;;23.80;17.35;;;2.70;73.70;;;;;;4921749;29;20310;-89
2022/03/04 00:19:08;;;;;;;21.77;17.60;;;2.70;73.00;;;;;;4921506;29;20204;-89
2022/03/04 00:21:36;;;;;;;22.63;17.02;;;2.60;72.80;;;;;;4915059;29;20230;-88
2022/03/04 00:24:04;;;;;;;26.77;18.02;;;2.60;72.80;;;;;;4913093;29;20197;-88
2022/03/04 00:26:32;;;;;;;25.73;17.97;;;2.50;72.80;;;;;;4905789;29;20211;-88
2022/03/04 00:28:59;;;;;;;24.70;17.50;;;2.60;72.90;;;;;;4903553;29;20461;-88
2022/03/04 00:31:26;;;;;;;20.98;17.45;;;2.50;73.00;;;;;;4911496;29;20700;-88
2022/03/04 00:33:53;;;;;;;41.38;30.90;;;2.60;73.00;;;;;;4904973;29;20209;-89
2022/03/04 01:06:53;;;;;;;37.33;24.17;;;2.10;75.30;;;;;;4904941;29;20167;-88
2022/03/04 01:16:04;;;;;;;30.60;20.80;;;1.90;75.40;;;;;;4906710;29;20208;-92
2022/03/04 01:18:32;;;;;;;30.00;18.42;;;1.80;76.00;;;;;;4915839;29;20200;-89
2022/03/04 01:20:58;;;;;;;20.33;17.05;;;1.70;76.20;;;;;;4909787;29;20234;-88
2022/03/04 01:23:27;;;;;;;20.45;17.40;;;1.70;76.80;;;;;;4922572;29;20294;-88
2022/03/04 01:25:54;;;;;;;20.88;18.20;;;1.80;76.90;;;;;;4914907;29;20208;-88
2022/03/04 01:28:21;;;;;;;20.92;15.95;;;1.80;77.00;;;;;;4922628;29;20210;-88
2022/03/04 01:30:48;;;;;;;25.35;18.30;;;1.90;77.00;;;;;;4923783;29;20211;-87
2022/03/04 01:33:16;;;;;;;23.30;18.25;;;1.90;76.90;;;;;;4936014;29;20248;-89
2022/03/04 01:35:43;;;;;;;20.73;16.27;;;1.90;76.80;;;;;;4932507;29;20203;-88
2022/03/04 01:38:10;;;;;;;18.92;16.00;;;1.90;77.00;;;;;;4915593;29;20210;-88
2022/03/04 01:40:38;;;;;;;21.60;16.15;;;2.00;77.10;;;;;;4927931;29;20370;-88
2022/03/04 01:43:05;;;;;;;21.60;17.30;;;1.80;76.80;;;;;;4927648;29;20214;-88
2022/03/04 01:45:32;;;;;;;20.70;16.75;;;1.80;77.30;;;;;;4931285;29;20200;-89
2022/03/04 01:47:59;;;;;;;21.60;17.15;;;1.70;77.80;;;;;;4935165;29;20253;-89
2022/03/04 01:50:26;;;;;;;20.80;15.77;;;1.70;78.10;;;;;;4942576;29;20289;-88
2022/03/04 01:52:54;;;;;;;22.17;15.98;;;1.70;77.90;;;;;;4947060;29;20278;-89
2022/03/04 01:55:21;;;;;;;22.05;15.75;;;1.70;77.60;;;;;;4938307;29;20214;-89
2022/03/04 01:57:49;;;;;;;26.38;16.05;;;1.60;77.70;;;;;;4909083;29;20273;-88
2022/03/04 02:00:16;;;;;;;22.35;16.42;;;1.70;78.20;;;;;;4929631;29;20221;-88
2022/03/04 02:02:45;;;;;;;19.00;15.30;;;1.60;78.20;;;;;;4925158;29;20191;-87
2022/03/04 02:05:15;;;;;;;23.58;15.65;;;1.60;78.60;;;;;;4918708;29;20790;-88
2022/03/04 02:07:43;;;;;;;21.20;16.00;;;1.60;78.60;;;;;;4919563;29;20671;-88
2022/03/04 02:10:10;;;;;;;18.58;15.40;;;1.50;78.40;;;;;;4923912;29;20209;-88
2022/03/04 02:12:37;;;;;;;22.10;16.98;;;1.40;78.10;;;;;;4915273;29;20693;-89
2022/03/04 02:15:08;;;;;;;20.50;16.73;;;1.40;78.00;;;;;;4923498;29;20199;-90
2022/03/04 02:17:35;;;;;;;23.02;18.38;;;1.30;78.20;;;;;;4923611;29;20217;-89
2022/03/04 02:20:03;;;;;;;23.60;17.10;;;1.30;78.10;;;;;;4933166;29;20194;-88
2022/03/04 02:22:31;;;;;;;21.27;17.63;;;1.40;77.90;;;;;;4922958;29;20655;-89
2022/03/04 02:24:58;;;;;;;21.27;18.05;;;1.30;78.10;;;;;;4916646;29;20199;-88
2022/03/04 02:27:25;;;;;;;21.20;15.90;;;1.20;78.30;;;;;;4902357;29;20591;-88
2022/03/04 02:29:52;;;;;;;23.30;18.00;;;1.20;78.60;;;;;;4903439;29;20290;-89
2022/03/04 02:32:19;;;;;;;19.33;15.73;;;1.20;79.10;;;;;;4908385;29;20234;-88
2022/03/04 02:34:47;;;;;;;20.92;16.30;;;1.30;79.10;;;;;;4928463;29;20306;-89
2022/03/04 02:37:14;;;;;;;20.17;17.02;;;1.30;79.20;;;;;;4903200;29;20259;-88
2022/03/04 02:39:43;;;;;;;20.48;16.60;;;1.30;79.40;;;;;;4903027;29;20234;-89
2022/03/04 02:42:10;;;;;;;23.92;16.85;;;1.20;79.30;;;;;;4901276;29;20266;-89
2022/03/04 02:44:37;;;;;;;18.80;16.70;;;1.20;79.60;;;;;;4901476;29;20603;-89
2022/03/04 02:47:05;;;;;;;20.60;15.50;;;1.10;80.00;;;;;;4906889;29;20251;-89
2022/03/04 02:49:32;;;;;;;20.80;16.13;;;1.20;80.50;;;;;;4920254;29;20282;-89
2022/03/04 02:51:59;;;;;;;21.52;17.05;;;1.10;80.70;;;;;;4907687;29;20306;-89
2022/03/04 02:54:26;;;;;;;21.77;15.32;;;1.10;81.10;;;;;;4917720;29;20214;-89
2022/03/04 02:56:54;;;;;;;23.92;16.65;;;1.10;81.40;;;;;;4924036;29;20219;-90
2022/03/04 02:59:21;;;;;;;20.20;16.45;;;1.10;81.50;;;;;;4928561;29;20179;-91
2022/03/04 03:01:48;;;;;;;18.77;16.00;;;1.00;81.40;;;;;;4928733;29;20302;-89
2022/03/04 03:04:15;;;;;;;25.15;17.85;;;0.90;81.80;;;;;;4921308;29;20299;-88
2022/03/04 03:06:42;;;;;;;21.23;16.65;;;0.90;83.40;;;;;;4924074;29;20210;-89
2022/03/04 03:09:08;;;;;;;22.92;16.33;;;0.90;82.90;;;;;;4930440;29;20632;-89
2022/03/04 03:11:35;;;;;;;20.92;16.38;;;0.90;83.20;;;;;;4913890;29;20244;-89
2022/03/04 03:14:04;;;;;;;28.83;18.13;;;0.90;83.10;;;;;;4919888;29;20254;-89
2022/03/04 03:16:30;;;;;;;22.80;15.73;;;0.80;83.10;;;;;;4908766;29;20207;-89
2022/03/04 03:18:57;;;;;;;25.95;17.73;;;0.80;83.80;;;;;;4907022;29;20282;-89
2022/03/04 03:21:24;;;;;;;24.05;17.42;;;0.80;84.20;;;;;;4902716;29;20798;-89
2022/03/04 03:23:51;;;;;;;18.90;16.58;;;0.70;84.20;;;;;;4922752;29;20187;-90
2022/03/04 03:26:17;;;;;;;23.40;17.10;;;0.60;84.50;;;;;;4927173;29;20199;-89
2022/03/04 03:28:44;;;;;;;25.05;17.58;;;0.60;84.90;;;;;;4915753;29;20214;-88
2022/03/04 03:31:12;;;;;;;22.73;16.77;;;0.50;85.10;;;;;;4919949;29;20211;-89
2022/03/04 03:33:41;;;;;;;24.33;16.85;;;0.50;85.50;;;;;;4922861;29;20243;-90
2022/03/04 03:36:08;;;;;;;21.23;15.82;;;0.50;85.50;;;;;;4917716;29;20232;-88
2022/03/04 03:38:35;;;;;;;23.45;16.83;;;0.50;85.80;;;;;;4931502;29;20266;-89
2022/03/04 03:41:02;;;;;;;32.78;18.45;;;0.50;86.30;;;;;;4917240;29;20318;-89
2022/03/04 03:43:28;;;;;;;23.00;16.30;;;0.50;86.60;;;;;;4921032;29;20203;-88
2022/03/04 03:45:55;;;;;;;24.08;16.98;;;0.40;86.70;;;;;;4926941;29;20218;-88
2022/03/04 03:48:23;;;;;;;22.40;18.73;;;0.40;87.20;;;;;;4929114;29;20194;-88
2022/03/04 03:50:59;;;;;;;21.25;16.02;;;0.40;87.50;;;;;;4930530;29;20218;-88
2022/03/04 03:53:26;;;;;;;19.30;16.23;;;0.40;87.60;;;;;;4924030;29;20211;-89
2022/03/04 03:55:53;;;;;;;24.40;17.05;;;0.30;87.50;;;;;;4913868;29;20748;-88
2022/03/04 03:58:20;;;;;;;23.42;16.92;;;0.40;88.10;;;;;;4904848;29;20233;-87
2022/03/04 04:00:46;;;;;;;23.95;16.83;;;0.50;87.30;;;;;;4910288;29;20709;-88
2022/03/04 04:03:14;;;;;;;24.60;17.58;;;0.50;87.30;;;;;;4917913;29;20666;-89
2022/03/04 04:05:42;;;;;;;22.88;16.30;;;0.50;87.10;;;;;;4916981;29;20257;-88
2022/03/04 04:08:09;;;;;;;21.58;16.63;;;0.60;87.10;;;;;;4921430;29;20660;-88
2022/03/04 04:10:35;;;;;;;21.52;16.00;;;0.60;86.50;;;;;;4913599;29;20223;-88
2022/03/04 04:13:03;;;;;;;23.92;17.48;;;0.50;86.50;;;;;;4900703;29;20231;-88
2022/03/04 04:15:29;;;;;;;33.38;19.58;;;0.40;86.80;;;;;;4900190;29;20218;-88
2022/03/04 04:17:56;;;;;;;18.23;16.15;;;0.40;87.60;;;;;;4900317;29;20488;-89
2022/03/04 04:20:23;;;;;;;16.48;14.65;;;0.30;88.00;;;;;;4904112;29;20214;-89
2022/03/04 04:22:51;;;;;;;22.20;16.65;;;0.30;88.50;;;;;;4925907;29;20186;-90
2022/03/04 04:25:18;;;;;;;22.83;16.52;;;0.30;88.50;;;;;;4918131;29;20199;-88
2022/03/04 04:27:45;;;;;;;25.00;17.48;;;0.20;88.50;;;;;;4926327;29;20197;-89
2022/03/04 04:30:12;;;;;;;23.60;16.88;;;0.20;88.90;;;;;;4919684;29;20194;-88
2022/03/04 04:32:39;;;;;;;20.58;16.95;;;0.10;89.30;;;;;;4918506;29;20227;-89
2022/03/04 04:35:07;;;;;;;20.40;15.73;;;0.10;89.70;;;;;;4912641;29;20202;-88
2022/03/04 04:37:34;;;;;;;24.00;17.65;;;0.10;89.60;;;;;;4920367;29;20588;-88
2022/03/04 04:40:04;;;;;;;24.92;18.77;;;0.10;90.10;;;;;;4932387;29;20207;-88
2022/03/04 04:42:37;;;;;;;27.65;17.70;;;0.10;90.20;;;;;;4929227;29;20326;-86
2022/03/04 04:45:11;;;;;;;23.08;16.60;;;0.00;90.30;;;;;;4934092;29;20207;-88
2022/03/04 04:47:40;;;;;;;23.92;17.95;;;0.10;90.60;;;;;;4921123;29;20200;-88
2022/03/04 04:50:08;;;;;;;27.83;17.92;;;0.00;90.50;;;;;;4910247;29;20207;-86
2022/03/04 04:52:35;;;;;;;28.20;17.95;;;0.00;90.40;;;;;;4915699;29;20218;-85
2022/03/04 04:55:03;;;;;;;22.38;17.05;;;0.00;90.30;;;;;;4939091;29;20197;-86
2022/03/04 04:57:30;;;;;;;21.85;16.33;;;0.10;90.40;;;;;;4927039;29;20195;-86
2022/03/04 04:59:56;;;;;;;26.85;18.77;;;0.00;90.40;;;;;;4901686;29;20207;-86
2022/03/04 05:02:23;;;;;;;24.80;16.30;;;0.10;90.50;;;;;;4902346;29;20234;-86
2022/03/04 05:04:50;;;;;;;21.17;16.35;;;0.00;90.50;;;;;;4932469;29;20202;-86
2022/03/04 05:07:17;;;;;;;27.63;20.25;;;0.00;90.60;;;;;;4934470;29;20629;-86
2022/03/04 05:09:43;;;;;;;27.17;17.13;;;-0.10;90.70;;;;;;4938449;29;20197;-86
2022/03/04 05:12:12;;;;;;;22.38;16.20;;;-0.10;91.00;;;;;;4912284;29;20226;-87
2022/03/04 05:14:38;;;;;;;20.88;16.58;;;-0.10;91.10;;;;;;4899600;29;20228;-87
2022/03/04 05:17:05;;;;;;;26.00;16.90;;;-0.10;91.00;;;;;;4912937;29;20229;-86
2022/03/04 05:19:32;;;;;;;22.38;18.05;;;-0.10;91.00;;;;;;4924713;29;20190;-85
2022/03/04 05:21:59;;;;;;;22.55;16.90;;;-0.10;90.80;;;;;;4922473;29;20214;-86
2022/03/04 05:24:26;;;;;;;22.20;16.92;;;0.00;90.70;;;;;;4933286;29;20214;-87
2022/03/04 05:26:52;;;;;;;29.13;16.02;;;0.10;90.30;;;;;;4928735;29;20189;-86
2022/03/04 05:29:21;;;;;;;22.02;18.80;;;0.10;90.20;;;;;;4927825;29;20179;-86
2022/03/04 05:31:48;;;;;;;21.73;16.75;;;0.00;90.10;;;;;;4926884;29;20287;-87
2022/03/04 05:34:15;;;;;;;19.77;15.52;;;0.10;90.30;;;;;;4903636;29;20223;-87
2022/03/04 05:36:42;;;;;;;24.48;17.38;;;0.10;90.40;;;;;;4919974;29;20704;-87
2022/03/04 05:39:09;;;;;;;23.38;16.85;;;0.10;90.40;;;;;;4908447;29;20195;-86
2022/03/04 05:41:36;;;;;;;21.85;17.70;;;0.00;90.60;;;;;;4910112;29;20241;-87
2022/03/04 05:44:03;;;;;;;26.77;18.55;;;-0.10;90.90;;;;;;4920780;29;20205;-87
2022/03/04 05:46:32;;;;;;;24.83;17.02;;;-0.20;91.60;;;;;;4918448;29;20236;-87
2022/03/04 05:48:59;;;;;;;23.42;17.67;;;-0.10;91.50;;;;;;4922884;29;20289;-88
2022/03/04 05:51:25;;;;;;;22.95;16.85;;;-0.10;91.50;;;;;;4923285;29;20222;-87
2022/03/04 05:53:52;;;;;;;23.35;17.35;;;-0.10;91.20;;;;;;4913912;29;20248;-86
2022/03/04 05:56:20;;;;;;;23.15;16.77;;;-0.10;91.00;;;;;;4912466;29;20227;-86
2022/03/04 05:58:46;;;;;;;24.67;18.27;;;-0.20;91.20;;;;;;4927130;29;20203;-87
2022/03/04 06:01:13;;;;;;;20.92;15.82;;;-0.20;91.30;;;;;;4922674;29;20218;-86
2022/03/04 06:03:41;;;;;;;21.90;15.75;;;-0.30;91.30;;;;;;4918141;29;20223;-86
2022/03/04 06:06:11;;;;;;;23.33;17.85;;;-0.20;91.60;;;;;;4916618;29;20259;-87
2022/03/04 06:08:38;;;;;;;25.75;18.38;;;-0.30;91.60;;;;;;4921962;29;20203;-87
2022/03/04 06:11:06;;;;;;;21.83;16.88;;;-0.20;91.90;;;;;;4911178;29;20307;-87
2022/03/04 06:13:33;;;;;;;27.42;16.23;;;-0.10;91.70;;;;;;4907788;29;20243;-87
2022/03/04 06:16:00;;;;;;;23.13;17.60;;;-0.20;91.70;;;;;;4913179;29;20258;-88
2022/03/04 06:18:27;;;;;;;29.33;17.02;;;-0.20;91.80;;;;;;4922104;29;20203;-88
2022/03/04 06:20:55;;;;;;;26.20;18.60;;;-0.20;91.80;;;;;;4923805;29;20261;-87
2022/03/04 06:23:22;;;;;;;24.90;17.35;;;0.00;91.80;;;;;;4921791;29;20203;-87
2022/03/04 06:25:50;;;;;;;25.00;16.77;;;-0.10;91.50;;;;;;4934063;29;20209;-87
2022/03/04 06:28:17;;;;;;;29.58;18.73;;;0.00;91.50;;;;;;4934706;29;20175;-85
2022/03/04 06:30:44;;;;;;;26.40;17.73;;;0.00;91.40;;;;;;4909420;29;20591;-87
2022/03/04 06:35:59;;;;;;;27.98;19.15;;;0.10;91.10;;;;;;4905218;29;20243;-87
2022/03/04 06:38:26;;;;;;;29.58;18.77;;;0.10;91.10;;;;;;4912720;29;20207;-86
2022/03/04 06:40:53;;;;;;;27.95;19.33;;;0.10;91.30;;;;;;4921867;29;20243;-86
2022/03/04 06:43:20;;;;;;;25.30;19.15;;;0.10;91.30;;;;;;4936348;29;20191;-86
2022/03/04 06:45:48;;;;;;;22.02;17.85;;;0.20;91.20;;;;;;4926009;29;20211;-86
2022/03/04 06:48:18;;;;;;;23.48;18.95;;;0.20;91.20;;;;;;4902088;29;20586;-86
2022/03/04 06:50:45;;;;;;;27.27;19.00;;;0.30;91.30;;;;;;4903210;29;20228;-87
2022/03/04 06:53:13;;;;;;;26.15;19.50;;;0.30;91.30;;;;;;4901796;29;20203;-88
2022/03/04 06:55:40;;;;;;;27.00;18.17;;;0.30;91.20;;;;;;4903129;29;20211;-89
2022/03/04 06:58:07;;;;;;;29.58;20.20;;;0.40;91.10;;;;;;4922655;29;20206;-89
2022/03/04 07:00:34;;;;;;;26.08;17.33;;;0.40;90.90;;;;;;4922542;29;20199;-89
2022/03/04 07:03:02;;;;;;;36.05;19.13;;;0.50;90.80;;;;;;4941622;29;20211;-88
2022/03/04 07:05:28;;;;;;;22.98;17.42;;;0.60;90.40;;;;;;4930231;29;20294;-89
2022/03/04 07:07:56;;;;;;;22.95;16.70;;;0.70;90.00;;;;;;4886473;29;20212;-88
2022/03/04 07:10:24;;;;;;;22.75;16.92;;;0.70;89.90;;;;;;4885286;29;20295;-88
2022/03/04 07:12:51;;;;;;;26.38;18.15;;;0.80;89.80;;;;;;4917291;29;20199;-87
2022/03/04 07:15:19;;;;;;;21.83;17.50;;;0.90;89.60;;;;;;4908744;29;20247;-88
2022/03/04 07:17:46;;;;;;;25.13;18.52;;;0.90;89.30;;;;;;4903165;29;20207;-88
2022/03/04 07:20:17;;;;;;;23.33;19.40;;;1.00;89.00;;;;;;4913340;29;20211;-88
2022/03/04 07:22:44;;;;;;;24.65;18.65;;;1.00;88.40;;;;;;4921883;29;20204;-88
2022/03/04 07:25:13;;;;;;;28.40;20.50;;;1.10;87.50;;;;;;4918128;29;20219;-88
2022/03/04 07:27:41;;;;;;;28.70;19.85;;;1.10;87.10;;;;;;4919963;29;20294;-87
2022/03/04 07:30:10;;;;;;;23.45;20.23;;;1.20;87.00;;;;;;4923126;29;20207;-89
2022/03/04 07:32:39;;;;;;;25.83;18.77;;;1.20;86.50;;;;;;4933188;29;20226;-88
2022/03/04 07:35:08;;;;;;;28.55;19.77;;;1.40;85.90;;;;;;4921948;29;20220;-88
2022/03/04 07:37:35;;;;;;;29.80;20.23;;;1.40;85.30;;;;;;4917452;29;20271;-88
2022/03/04 07:40:02;;;;;;;29.85;20.10;;;1.50;85.50;;;;;;4923609;29;20666;-88
2022/03/04 07:42:29;;;;;;;29.55;22.20;;;1.50;85.40;;;;;;4912502;29;20231;-88
2022/03/04 07:44:58;;;;;;;28.02;19.70;;;1.60;85.10;;;;;;4926072;29;20259;-88
2022/03/04 07:47:25;;;;;;;25.20;19.00;;;1.60;84.80;;;;;;4917153;29;20211;-88
2022/03/04 07:49:52;;;;;;;27.83;20.15;;;1.70;84.10;;;;;;4922411;29;20263;-89
2022/03/04 07:52:19;;;;;;;30.20;21.60;;;1.80;83.60;;;;;;4925020;29;20218;-89
2022/03/04 07:54:45;;;;;;;26.25;19.83;;;1.90;82.60;;;;;;4921195;29;20230;-89
2022/03/04 07:57:12;;;;;;;28.77;21.35;;;2.00;82.40;;;;;;4925324;29;20199;-89
2022/03/04 07:59:39;;;;;;;25.80;19.80;;;2.10;82.30;;;;;;4935807;29;20209;-89
2022/03/04 08:02:08;;;;;;;26.42;18.65;;;2.20;82.30;;;;;;4922428;29;20243;-88
2022/03/04 08:04:35;;;;;;;27.70;20.27;;;2.20;81.60;;;;;;4904647;29;20205;-89
2022/03/04 08:07:01;;;;;;;25.45;18.55;;;2.30;81.70;;;;;;4922338;29;20226;-90
2022/03/04 08:09:28;;;;;;;23.02;18.50;;;2.50;81.60;;;;;;4934882;29;20191;-89
2022/03/04 08:11:55;;;;;;;22.83;19.05;;;2.60;81.40;;;;;;4934995;29;20213;-91
2022/03/04 08:14:22;;;;;;;25.85;21.15;;;3.10;81.20;;;;;;4935751;29;20227;-89
2022/03/04 08:17:01;;;;;;;28.52;20.33;;;4.00;80.60;;;;;;4905217;29;20211;-88
2022/03/04 08:19:29;;;;;;;28.95;20.83;;;4.60;76.30;;;;;;4911212;29;20196;-88
2022/03/04 08:21:56;;;;;;;25.67;21.50;;;4.60;72.40;;;;;;4926738;29;20220;-89
2022/03/04 08:24:24;;;;;;;24.33;20.57;;;5.00;72.80;;;;;;4926714;29;20998;-88
2022/03/04 08:26:51;;;;;;;24.90;20.47;;;5.60;70.30;;;;;;4932960;29;20465;-91
2022/03/04 08:29:18;;;;;;;28.10;21.87;;;6.60;67.20;;;;;;4929397;29;20462;-87
2022/03/04 08:31:45;;;;;;;26.33;21.63;;;7.40;63.40;;;;;;4909752;29;20479;-88
2022/03/04 08:34:12;;;;;;;26.20;22.77;;;7.60;59.90;;;;;;4903029;29;21083;-89
2022/03/04 08:36:40;;;;;;;26.70;21.70;;;8.60;59.20;;;;;;4928030;29;20441;-90
2022/03/04 08:39:07;;;;;;;28.13;23.17;;;9.60;57.50;;;;;;4934660;29;20443;-89
2022/03/04 08:41:34;;;;;;;28.60;22.90;;;10.80;53.80;;;;;;4926667;29;20500;-89
2022/03/04 08:44:04;;;;;;;31.57;22.83;;;11.30;50.90;;;;;;4924247;29;20447;-89
2022/03/04 08:46:32;;;;;;;27.07;24.37;;;11.10;49.20;;;;;;4914827;29;20452;-89
2022/03/04 08:49:05;;;;;;;28.57;23.37;;;10.70;49.30;;;;;;4917322;29;20976;-89
2022/03/04 08:51:32;;;;;;;27.63;23.20;;;11.50;49.00;;;;;;4927032;29;20483;-91
2022/03/04 08:54:01;;;;;;;26.83;22.83;;;12.00;47.40;;;;;;4885059;29;20480;-90
2022/03/04 08:56:27;;;;;;;26.10;23.30;;;12.90;46.60;;;;;;4909471;29;20459;-89
2022/03/04 08:58:54;;;;;;;27.40;24.50;;;13.40;44.40;;;;;;4902134;29;20812;-88
2022/03/04 09:01:21;;;;;;;28.87;25.80;;;12.60;45.10;;;;;;4903429;29;20486;-89
2022/03/04 09:03:48;;;;;;;25.90;23.13;;;12.80;45.10;;;;;;4906425;29;20528;-89
2022/03/04 09:06:15;;;;;;;25.30;22.30;;;11.80;44.70;;;;;;4905545;29;20562;-89
2022/03/04 09:08:42;;;;;;;29.47;24.77;;;11.50;45.50;;;;;;4919660;29;20473;-89
2022/03/04 09:11:10;;;;;;;27.97;23.07;;;11.50;45.60;;;;;;4919682;29;20486;-89
2022/03/04 09:13:37;;;;;;;25.83;23.03;;;11.50;46.30;;;;;;4933487;29;20510;-91
2022/03/04 09:16:05;;;;;;;26.43;23.17;;;12.80;46.10;;;;;;4934443;29;20923;-88
2022/03/04 09:18:34;;;;;;;29.37;23.50;;;13.40;43.30;;;;;;4914488;29;20955;-90
2022/03/04 09:21:01;;;;;;;28.50;25.40;;;12.80;43.30;;;;;;5033451;23;20513;-89
2022/03/04 09:23:28;;;;;;;27.70;24.70;;;14.10;43.80;;;;;;4946461;29;20467;-91
2022/03/04 09:25:55;;;;;;;26.73;23.93;;;15.50;41.70;;;;;;4933717;29;20444;-88
2022/03/04 09:28:32;;;;;;;27.40;24.60;;;17.10;38.80;;;;;;4936266;29;20450;-89
2022/03/04 09:31:00;;;;;;;27.83;25.00;;;16.80;37.70;;;;;;4939694;29;20478;-89
2022/03/04 09:33:30;;;;;;;29.33;26.33;;;16.90;37.20;;;;;;4941490;29;20479;-89
2022/03/04 09:35:57;;;;;;;28.17;25.43;;;16.90;38.10;;;;;;4941389;29;20496;-89
2022/03/04 09:38:24;;;;;;;27.63;24.93;;;15.40;37.30;;;;;;4938514;29;20510;-88
2022/03/04 09:40:56;;;;;;;28.97;26.17;;;16.10;38.30;;;;;;4924545;29;20487;-89
2022/03/04 09:43:28;;;;;;;29.13;26.03;;;16.10;37.50;;;;;;4933427;29;20985;-88
2022/03/04 09:45:58;;;;;;;27.87;25.17;;;16.20;37.20;;;;;;4929215;29;20534;-88
2022/03/04 09:48:29;;;;;;;28.03;25.23;;;17.50;36.90;;;;;;4929546;29;20546;-89
2022/03/04 09:51:35;;;;;;;28.03;25.23;;;18.40;34.70;;;;;;4932174;29;20463;-89
2022/03/04 09:54:13;;;;;;;28.17;25.10;;;17.90;34.40;;;;;;4938138;29;20423;-88
2022/03/04 09:56:54;;;;;;;29.00;25.87;;;17.00;34.80;;;;;;4942744;29;20514;-90
2022/03/04 09:59:39;;;;;;;27.33;24.63;;;18.30;34.50;;;;;;4946118;29;20488;-89
2022/03/04 10:02:14;;;;;;;27.23;24.57;;;19.60;33.40;;;;;;4945238;29;20494;-88
2022/03/04 10:05:03;;;;;;;28.67;25.77;;;20.90;31.60;;;;;;4928358;29;20541;-89
2022/03/04 10:07:47;;;;;;;29.20;26.40;;;19.90;30.70;;;;;;4936847;29;20451;-89
2022/03/04 10:10:25;;;;;;;29.67;26.43;;;19.80;31.30;;;;;;4936399;29;20853;-89
2022/03/04 10:13:05;;;;;;;29.27;24.07;;;20.30;30.60;;;;;;4943332;29;20865;-89
2022/03/04 10:18:26;;;;;;;25.93;23.63;;;21.40;29.80;;;;;;4935687;29;20462;-90
2022/03/04 10:20:54;;;;;;;27.57;25.00;;;22.90;29.00;;;;;;4942272;29;20488;-90
2022/03/04 10:23:22;;;;;;;28.80;26.10;;;23.30;27.50;;;;;;4938092;29;20834;-80
2022/03/04 10:25:51;;;;;;;27.83;25.30;;;21.60;28.20;;;;;;4959097;29;20440;-80
2022/03/04 10:28:19;;;;;;;28.20;25.33;;;21.50;29.00;;;;;;4934225;29;20451;-80
2022/03/04 10:30:49;;;;;;;27.27;24.60;;;22.90;28.20;;;;;;4928668;29;20466;-80
2022/03/04 10:33:18;;;;;;;29.17;26.20;;;23.30;27.80;;;;;;4943215;29;20521;-80
2022/03/04 10:35:45;;;;;;;26.37;23.77;;;24.20;27.10;;;;;;4932083;29;20471;-81
2022/03/04 10:38:21;;;;;;;28.10;25.07;;;24.10;26.70;;;;;;4930145;29;20462;-84
2022/03/04 10:40:49;;;;;;;26.77;23.93;;;23.20;26.90;;;;;;4947586;29;20473;-88
2022/03/04 10:43:23;;;;;;;28.00;25.30;;;23.50;27.20;;;;;;4944639;29;20522;-87
2022/03/04 10:49:25;;;;;;;29.13;26.40;;;24.70;26.70;;;;;;4906949;29;20809;-88
2022/03/04 10:52:06;;;;;;;28.87;26.03;;;23.70;26.30;;;;;;4924281;29;20462;-88
2022/03/04 10:54:53;;;;;;;28.03;25.30;;;21.50;26.50;;;;;;4951763;29;20507;-89
2022/03/04 10:57:23;;;;;;;27.23;24.83;;;20.20;27.70;;;;;;4928141;29;20458;-88
2022/03/04 10:59:59;;;;;;;28.60;25.70;;;20.60;28.40;;;;;;4929185;29;20447;-88
2022/03/04 11:02:41;;;;;;;29.30;26.40;;;18.00;28.90;;;;;;4926562;29;20513;-88
2022/03/04 11:05:23;;;;;;;29.50;26.40;;;19.20;29.90;;;;;;4931773;29;20435;-88
2022/03/04 11:07:50;;;;;;;28.60;25.60;;;19.00;29.30;;;;;;4942428;29;20510;-88
2022/03/04 11:10:19;;;;;;;29.13;26.23;;;18.90;29.70;;;;;;4942658;29;20483;-89
2022/03/04 11:12:49;;;;;;;27.97;25.30;;;20.00;29.50;;;;;;4947483;29;20473;-88
2022/03/04 11:15:17;;;;;;;28.17;25.40;;;21.10;28.70;;;;;;4954884;28;20485;-88
2022/03/04 11:23:47;;;;;;;28.97;25.93;;;23.10;26.60;;;;;;4933019;23;20490;-91
2022/03/04 11:26:33;;;;;;;26.60;24.07;;;24.50;26.10;;;;;;4922372;29;20451;-89
2022/03/04 11:29:03;;;;;;;25.40;22.93;;;24.80;25.10;;;;;;4923194;29;20452;-88
2022/03/04 11:31:30;;;;;;;24.17;21.87;;;25.20;23.80;;;;;;4911614;29;20483;-88
2022/03/04 11:41:05;;;;;;;22.00;19.90;;;21.40;24.40;;;;;;4936186;29;20452;-87
2022/03/04 11:43:52;;;;;;;22.33;20.27;;;22.90;24.30;;;;;;4916253;29;20475;-89
2022/03/04 11:46:51;;;;;;;22.87;20.80;;;24.50;23.90;;;;;;4911996;29;20500;-89
2022/03/04 11:55:31;;;;;;;19.67;17.80;;;21.40;24.20;;;;;;4920238;29;20494;-87
2022/03/04 12:09:06;;;;;;;17.57;16.03;;;23.20;22.20;;;;;;4927541;29;20479;-92
2022/03/04 12:27:07;;;;;;;;;;;;;;;;;;;;;
2022/03/04 12:29:45;;;;;;;20.37;18.53;;;20.90;24.70;;;;;;4934559;29;20438;-82
2022/03/04 12:32:12;;;;;;;21.67;19.47;;;20.90;24.30;;;;;;4919370;29;20547;-82
2022/03/04 12:34:49;;;;;;;21.40;19.20;;;20.50;24.50;;;;;;4919552;29;20503;-80
2022/03/04 12:37:16;;;;;;;20.83;18.73;;;19.70;25.00;;;;;;4915455;29;20456;-82
2022/03/04 12:39:46;;;;;;;21.50;19.50;;;20.40;24.90;;;;;;4919672;29;20516;-81
2022/03/04 12:42:14;;;;;;;22.60;20.40;;;21.50;24.80;;;;;;4913105;29;20497;-81
2022/03/04 12:44:42;;;;;;;23.37;21.13;;;22.40;24.20;;;;;;4910935;29;20457;-82
2022/03/04 12:47:09;;;;;;;24.67;20.10;;;24.00;23.70;;;;;;4905102;29;20506;-83
2022/03/04 12:49:59;;;;;;;;;;;;;;;;;;;;;
2022/03/04 12:52:28;;;;;;;20.87;18.77;;;24.30;22.90;;;;;;4917499;29;20476;-88
2022/03/04 12:55:23;;;;;;;19.10;17.30;;;23.30;22.40;;;;;;4913396;29;20451;-87
2022/03/04 12:58:00;;;;;;;20.50;18.60;;;22.10;22.40;;;;;;4908907;29;21017;-89
2022/03/04 13:00:35;;;;;;;19.90;18.10;;;20.10;23.60;;;;;;4911769;29;20445;-88
2022/03/04 13:03:27;;;;;;;20.60;18.60;;;19.50;24.70;;;;;;4913106;29;20435;-87
2022/03/04 13:05:57;;;;;;;21.53;19.33;;;19.30;24.90;;;;;;4920516;29;20546;-87
2022/03/04 13:08:25;;;;;;;20.50;18.50;;;19.50;25.30;;;;;;4927171;29;20444;-88
2022/03/04 13:10:54;;;;;;;20.93;18.33;;;18.90;25.40;;;;;;4919028;29;20557;-87
2022/03/04 13:13:26;;;;;;;18.83;17.00;;;18.50;25.10;;;;;;4917708;29;20462;-88
2022/03/04 13:15:56;;;;;;;20.17;18.00;;;18.40;25.50;;;;;;4906582;29;20479;-89
2022/03/04 13:22:04;;;;;;;21.07;18.97;;;18.00;25.40;;;;;;4910387;29;20475;-89
2022/03/04 13:28:08;;;;;;;19.10;17.10;;;20.00;25.40;;;;;;4910133;29;20457;-90
2022/03/04 13:31:03;;;;;;;21.13;19.03;;;21.50;24.40;;;;;;4910867;29;20462;-88
2022/03/04 13:37:02;;;;;;;17.80;15.93;;;24.00;22.50;;;;;;4900859;29;20485;-88
2022/03/04 13:39:45;;;;;;;17.13;15.53;;;23.90;21.90;;;;;;4910379;29;20704;-89
2022/03/04 13:42:26;;;;;;;16.53;15.00;;;22.00;22.40;;;;;;4915065;29;20534;-88
2022/03/04 13:45:15;;;;;;;15.23;13.67;;;20.00;22.50;;;;;;4915977;29;20526;-87
2022/03/04 13:48:02;;;;;;;15.87;14.17;;;20.40;23.20;;;;;;4915694;29;20444;-88
2022/03/04 13:53:22;;;;;;;16.43;14.70;;;20.70;23.20;;;;;;4911075;29;20470;-88
2022/03/04 13:56:02;;;;;;;16.33;14.73;;;20.70;23.20;;;;;;4916044;29;20532;-88
2022/03/04 13:59:09;;;;;;;17.70;15.90;;;20.60;22.90;;;;;;4911423;29;20468;-87
2022/03/04 14:01:52;;;;;;;17.57;15.63;;;20.20;23.20;;;;;;4832449;29;20479;-88
2022/03/04 14:05:03;;;;;;;18.10;16.13;;;18.90;24.20;;;;;;4832797;29;20493;-88
2022/03/04 14:07:55;;;;;;;15.50;13.90;;;18.40;25.20;;;;;;4842168;29;20463;-89
2022/03/04 14:14:41;;;;;;;16.60;14.40;;;15.50;25.90;;;;;;4745361;30;20443;-88
2022/03/04 14:17:11;;;;;;;20.70;14.40;;;15.70;26.40;;;;;;4720444;30;20506;-87
2022/03/04 14:20:09;;;;;;;20.00;14.37;;;15.90;26.80;;;;;;4826806;29;20463;-87
2022/03/04 14:26:29;;;;;;;14.47;12.97;;;16.40;26.00;;;;;;4875068;29;20467;-89
2022/03/04 14:29:11;;;;;;;13.93;12.50;;;17.10;25.60;;;;;;4865454;29;20480;-89
2022/03/04 14:32:04;;;;;;;16.70;13.13;;;17.30;25.20;;;;;;4826098;29;20974;-85
2022/03/04 14:34:48;;;;;;;18.93;12.87;;;17.70;25.10;;;;;;4847416;29;20457;-87
2022/03/04 14:47:20;;;;;;;18.80;12.73;;;16.10;25.00;;;;;;4848440;29;20465;-87
2022/03/04 14:49:47;;;;;;;17.33;14.67;;;16.20;26.30;;;;;;4915913;29;20455;-86
2022/03/04 14:52:14;;;;;;;14.80;13.20;;;15.50;26.10;;;;;;4922997;29;20469;-89
2022/03/04 14:58:02;;;;;;;14.83;13.20;;;15.40;26.80;;;;;;4866760;29;20435;-86